Time;durP1;ratioP1;P1;durP2;ratioP2;P2;SDS_P1;SDS_P2;PMS_P1;PMS_P2;Temp;Humidity;BMP_temperature;BMP_pressure;BME280_temperature;BME280_humidity;BME280_pressure;Samples;Min_cycle;Max_cycle;Signal;HPM_P1;HPM_P2
2021/03/27 00:00:42;;;;;;;6.97;6.40;;;8.70;99.90;;;9.60;67.54;97888.03;5238221;28;20652;-59
2021/03/27 00:03:24;;;;;;;6.43;6.03;;;8.70;99.90;;;9.64;67.83;97889.97;5239724;28;20260;-58
2021/03/27 00:06:03;;;;;;;7.23;6.47;;;8.70;99.90;;;9.66;68.27;97888.41;5240840;28;20619;-59
2021/03/27 00:08:53;;;;;;;7.53;6.67;;;8.80;99.90;;;9.58;69.63;97892.16;5226265;28;20232;-59
2021/03/27 00:11:41;;;;;;;7.53;6.83;;;8.80;99.90;;;9.51;70.74;97902.78;5245067;28;20287;-59
2021/03/27 00:14:17;;;;;;;7.73;7.03;;;8.80;99.90;;;9.50;72.33;97894.25;5238616;28;20223;-58
2021/03/27 00:16:55;;;;;;;7.70;7.00;;;8.70;99.90;;;9.39;72.06;97898.69;5238801;28;20653;-59
2021/03/27 00:19:37;;;;;;;9.17;8.00;;;8.70;99.90;;;9.36;74.03;97878.09;5240037;28;20684;-58
2021/03/27 00:22:19;;;;;;;7.97;7.27;;;8.80;99.90;;;9.63;75.70;97857.59;5232089;28;20292;-59
2021/03/27 00:25:09;;;;;;;10.67;9.57;;;8.90;99.90;;;9.90;75.39;97835.38;5242599;28;20224;-59
2021/03/27 00:27:48;;;;;;;11.80;10.60;;;9.30;99.90;;;10.24;75.80;97861.22;5245001;28;20726;-59
2021/03/27 00:30:27;;;;;;;12.17;10.97;;;9.70;99.90;;;10.34;76.48;97883.13;5225966;28;20197;-58
2021/03/27 00:33:00;;;;;;;11.50;10.40;;;10.00;99.90;;;10.54;75.55;97895.38;5239387;28;20316;-58
2021/03/27 00:35:38;;;;;;;12.23;11.03;;;10.10;99.90;;;10.63;75.47;97901.81;5227172;28;20194;-59
2021/03/27 00:38:18;;;;;;;10.67;9.80;;;10.20;99.90;;;10.76;75.33;97900.06;5231164;28;20699;-58
2021/03/27 00:40:53;;;;;;;10.70;9.63;;;10.30;99.90;;;10.93;74.66;97892.44;5246829;28;20262;-58
2021/03/27 00:43:35;;;;;;;10.53;9.10;;;10.50;99.90;;;11.03;75.09;97894.72;5241533;28;20193;-59
2021/03/27 00:46:11;;;;;;;10.27;9.20;;;10.50;99.90;;;11.08;74.79;97890.75;5226330;28;20213;-59
2021/03/27 00:48:48;;;;;;;8.87;8.07;;;10.50;99.90;;;11.32;73.97;97887.75;5235768;28;20243;-59
2021/03/27 00:51:28;;;;;;;9.77;8.73;;;10.70;99.90;;;11.33;74.25;97881.84;5245396;28;20207;-59
2021/03/27 00:54:06;;;;;;;8.27;7.53;;;10.80;99.90;;;11.29;74.73;97873.13;5242154;28;20308;-58
2021/03/27 00:56:47;;;;;;;8.10;7.40;;;10.90;99.90;;;11.23;74.89;97863.44;5233399;28;20202;-59
2021/03/27 00:59:26;;;;;;;7.40;6.80;;;10.90;99.90;;;11.19;75.97;97858.09;5241786;28;20604;-59
2021/03/27 01:02:03;;;;;;;6.97;6.37;;;10.80;99.90;;;11.17;76.14;97858.00;5234104;28;20197;-59
2021/03/27 01:04:36;;;;;;;7.13;6.50;;;10.70;99.90;;;11.13;76.27;97833.06;5225829;28;20217;-59
2021/03/27 01:07:12;;;;;;;7.00;6.40;;;10.70;99.90;;;11.18;76.25;97849.50;5242837;28;20204;-59
2021/03/27 01:09:49;;;;;;;6.90;6.40;;;10.70;99.90;;;11.15;75.76;97841.66;5246199;28;20250;-58
2021/03/27 01:12:31;;;;;;;6.80;6.30;;;10.70;99.90;;;11.21;75.95;97834.31;5243103;28;20619;-58
2021/03/27 01:15:12;;;;;;;7.20;6.50;;;10.60;99.90;;;11.20;75.73;97847.91;5225846;28;20228;-59
2021/03/27 01:17:48;;;;;;;7.63;6.37;;;10.60;99.90;;;11.20;75.48;97837.69;5239776;28;20212;-59
2021/03/27 01:20:26;;;;;;;7.27;6.53;;;10.60;99.90;;;11.24;75.21;97843.84;5226211;28;20228;-59
2021/03/27 01:22:58;;;;;;;7.00;6.30;;;10.60;99.90;;;11.19;75.38;97837.63;5244158;28;20279;-59
2021/03/27 01:25:34;;;;;;;6.40;5.80;;;10.60;99.90;;;11.14;75.87;97849.28;5246358;28;20604;-59
2021/03/27 01:28:12;;;;;;;6.57;6.07;;;10.50;99.90;;;11.11;75.23;97846.56;5238710;28;20225;-58
2021/03/27 01:30:56;;;;;;;6.90;6.20;;;10.40;99.90;;;11.09;75.05;97843.91;5226780;28;20201;-58
2021/03/27 01:33:34;;;;;;;6.03;5.53;;;10.40;99.90;;;10.97;75.51;97845.78;5227372;28;20328;-58
2021/03/27 01:36:26;;;;;;;6.17;5.67;;;10.40;99.90;;;11.04;75.08;97841.09;5229044;28;20224;-58
2021/03/27 01:39:04;;;;;;;6.17;5.57;;;10.40;99.90;;;11.13;74.34;97848.41;5244869;28;20690;-58
2021/03/27 01:41:54;;;;;;;5.83;5.43;;;10.40;99.90;;;11.10;74.43;97845.66;5244443;28;20631;-59
2021/03/27 01:44:53;;;;;;;5.67;5.27;;;10.40;99.90;;;11.07;74.29;97830.13;5234277;28;20340;-58
2021/03/27 01:47:32;;;;;;;6.00;5.43;;;10.40;99.90;;;11.12;74.28;97831.28;5241395;28;20208;-59
2021/03/27 01:50:20;;;;;;;5.40;5.00;;;10.40;99.90;;;11.11;73.49;97831.22;5250143;28;20219;-59
2021/03/27 01:53:22;;;;;;;5.57;5.17;;;10.50;99.90;;;11.16;73.75;97833.22;5237680;28;20700;-59
2021/03/27 01:56:21;;;;;;;5.30;4.90;;;10.50;99.90;;;11.30;72.29;97831.38;5239451;28;20228;-59
2021/03/27 01:59:02;;;;;;;5.30;4.80;;;10.50;99.90;;;11.35;71.57;97826.53;5226226;28;20255;-59
2021/03/27 02:01:37;;;;;;;5.30;4.90;;;10.60;99.90;;;11.35;71.36;97834.19;5246593;28;20326;-59
2021/03/27 02:04:16;;;;;;;4.73;4.43;;;10.60;99.90;;;11.35;71.63;97837.63;5248283;28;20242;-57
2021/03/27 02:06:55;;;;;;;4.97;4.57;;;10.60;99.90;;;11.31;72.09;97847.63;5231735;28;20232;-59
2021/03/27 02:09:34;;;;;;;4.63;4.33;;;10.60;99.90;;;11.41;70.51;97840.50;5233847;28;20223;-59
2021/03/27 02:12:12;;;;;;;4.60;4.30;;;10.70;99.90;;;11.46;70.30;97841.63;5246533;28;20231;-59
2021/03/27 02:14:52;;;;;;;4.57;4.27;;;10.70;99.90;;;11.49;69.39;97849.47;5241918;28;20218;-59
2021/03/27 02:17:31;;;;;;;4.50;4.10;;;10.70;99.90;;;11.52;69.93;97853.88;5248550;28;20279;-59
2021/03/27 02:21:09;;;;;;;5.03;4.70;;;10.70;99.90;;;11.42;71.31;97859.34;5244672;28;20331;-58
2021/03/27 02:24:01;;;;;;;4.50;4.20;;;10.70;99.90;;;11.37;71.72;97865.88;5170782;28;20259;-59
2021/03/27 02:26:51;;;;;;;4.77;4.40;;;10.70;99.90;;;11.33;72.35;97869.03;5184024;28;20199;-59
2021/03/27 02:30:09;;;;;;;4.47;4.17;;;10.60;99.90;;;11.25;73.39;97877.19;5225552;28;20778;-58
2021/03/27 02:33:13;;;;;;;4.67;4.27;;;10.60;99.90;;;11.31;74.52;97886.88;5246341;28;20224;-59
2021/03/27 02:36:13;;;;;;;5.10;4.70;;;10.60;99.90;;;11.27;75.86;97885.84;5231098;28;20606;-58
2021/03/27 02:39:16;;;;;;;4.90;4.60;;;10.50;99.90;;;11.12;76.97;97889.22;5237309;28;20252;-59
2021/03/27 02:42:02;;;;;;;4.60;4.30;;;10.50;99.90;;;11.07;77.39;97891.53;5247394;28;20589;-59
2021/03/27 02:44:39;;;;;;;5.03;4.60;;;10.50;99.90;;;10.94;78.40;97894.22;5244610;28;20283;-59
2021/03/27 02:47:54;;;;;;;5.77;5.30;;;10.40;99.90;;;10.86;79.88;97901.44;5247770;28;20198;-59
2021/03/27 02:50:59;;;;;;;5.80;5.30;;;10.30;99.90;;;10.78;81.04;97916.34;5248790;28;20200;-59
2021/03/27 02:53:42;;;;;;;5.20;4.70;;;10.30;99.90;;;10.72;82.05;97923.66;5241852;28;20300;-59
2021/03/27 02:56:25;;;;;;;6.70;5.13;;;10.10;99.90;;;10.58;82.20;97924.53;5245076;28;20672;-59
2021/03/27 02:59:16;;;;;;;5.67;5.27;;;10.10;99.90;;;10.59;83.77;97928.88;5239535;28;20631;-59
2021/03/27 03:01:59;;;;;;;5.97;5.47;;;10.00;99.90;;;10.50;84.03;97941.09;5244369;28;20200;-59
2021/03/27 03:04:43;;;;;;;6.27;5.77;;;9.90;99.90;;;10.47;84.93;97952.06;5248626;28;20258;-59
2021/03/27 03:07:26;;;;;;;6.63;6.03;;;9.80;99.90;;;10.48;84.91;97958.91;5244444;28;20255;-59
2021/03/27 03:10:17;;;;;;;7.17;6.53;;;9.90;99.90;;;10.34;86.23;97958.09;5227819;28;20197;-59
2021/03/27 03:13:03;;;;;;;6.20;5.60;;;9.70;99.90;;;10.35;86.99;97969.19;5240552;28;20259;-59
2021/03/27 03:15:45;;;;;;;6.47;5.97;;;9.80;99.90;;;10.29;87.83;97964.59;5227765;28;20244;-58
2021/03/27 03:18:29;;;;;;;7.30;5.93;;;9.60;99.90;;;10.19;88.60;97959.72;5236050;28;20225;-58
2021/03/27 03:21:11;;;;;;;6.50;6.00;;;9.60;99.90;;;10.13;89.14;97956.78;5237278;28;20475;-58
2021/03/27 03:23:57;;;;;;;5.97;5.47;;;9.50;99.90;;;10.18;87.96;97955.38;5227595;28;20734;-58
2021/03/27 03:26:56;;;;;;;6.53;5.90;;;9.50;99.90;;;10.11;88.57;97951.59;5244296;28;20201;-58
2021/03/27 03:29:41;;;;;;;6.50;5.90;;;9.50;99.90;;;10.16;88.47;97934.00;5242305;28;20263;-58
2021/03/27 03:32:26;;;;;;;6.27;5.77;;;9.50;99.90;;;10.22;87.48;97918.16;5228614;28;20197;-58
2021/03/27 03:35:20;;;;;;;6.37;5.87;;;9.60;99.90;;;10.11;89.25;97920.06;5230776;28;20661;-58
2021/03/27 03:38:18;;;;;;;6.30;5.80;;;9.40;99.90;;;10.11;89.21;97928.59;5246705;28;20252;-59
2021/03/27 03:41:08;;;;;;;6.27;5.67;;;9.40;99.90;;;10.07;88.97;97933.41;5245465;28;20197;-58
2021/03/27 03:43:53;;;;;;;6.30;5.80;;;9.40;99.90;;;10.15;88.93;97943.28;5231050;28;20244;-58
2021/03/27 03:46:52;;;;;;;6.67;6.07;;;9.50;99.90;;;10.13;89.08;97944.03;5241211;28;20200;-58
2021/03/27 03:49:43;;;;;;;5.60;5.10;;;9.50;99.90;;;10.07;87.19;97946.19;5246375;28;20217;-57
2021/03/27 03:52:34;;;;;;;6.00;5.40;;;9.50;99.90;;;10.06;89.12;97954.66;5246115;28;20728;-57
2021/03/27 03:55:32;;;;;;;5.87;5.33;;;9.40;99.90;;;10.01;89.01;97956.03;5245162;28;20601;-58
2021/03/27 03:58:22;;;;;;;5.40;4.97;;;9.40;99.90;;;10.12;87.59;97947.34;5230962;28;20245;-57
2021/03/27 04:01:04;;;;;;;5.07;4.63;;;9.40;99.90;;;10.04;88.78;97953.66;5241442;28;20221;-57
2021/03/27 04:03:46;;;;;;;5.40;5.00;;;9.30;99.90;;;9.90;88.75;97956.28;5237039;28;20189;-57
2021/03/27 04:06:23;;;;;;;4.87;4.37;;;9.20;99.90;;;9.91;89.23;97957.16;5245270;28;20201;-58
2021/03/27 04:09:02;;;;;;;4.93;4.53;;;9.20;99.90;;;10.00;89.04;97964.50;5245818;28;20278;-57
2021/03/27 04:12:03;;;;;;;4.40;4.10;;;9.20;99.90;;;10.00;87.81;97979.81;5246522;28;20199;-55
2021/03/27 04:14:58;;;;;;;4.57;4.17;;;9.20;99.90;;;9.86;86.81;97990.06;5243628;28;20222;-58
2021/03/27 04:17:43;;;;;;;4.47;4.17;;;9.20;99.90;;;9.83;89.16;98005.19;5239601;28;20198;-58
2021/03/27 04:20:53;;;;;;;4.77;4.40;;;9.20;99.90;;;9.80;90.14;98025.41;5226370;28;20200;-57
2021/03/27 04:23:44;;;;;;;5.17;4.77;;;9.10;99.90;;;9.76;91.38;98036.22;5237128;28;20288;-58
2021/03/27 04:26:27;;;;;;;5.33;4.93;;;9.10;99.90;;;9.68;90.30;98066.38;5234666;28;20284;-59
2021/03/27 04:29:37;;;;;;;5.43;4.93;;;9.10;99.90;;;9.58;92.14;98069.09;5240194;28;20231;-58
2021/03/27 04:32:31;;;;;;;5.50;5.10;;;9.00;99.90;;;9.56;92.22;98075.81;5161317;28;20294;-60
2021/03/27 04:35:22;;;;;;;4.67;4.27;;;8.90;99.90;;;9.51;91.54;98089.91;5150659;28;20266;-60
2021/03/27 04:38:17;;;;;;;4.60;4.23;;;8.90;99.90;;;9.51;91.62;98092.47;5212409;28;20249;-61
2021/03/27 04:40:55;;;;;;;3.90;3.60;;;8.80;99.90;;;9.44;88.70;98088.66;5228885;28;20193;-61
2021/03/27 04:43:34;;;;;;;3.33;3.13;;;8.80;99.90;;;9.26;87.73;98100.19;5241077;28;20189;-60
2021/03/27 04:46:14;;;;;;;3.50;3.30;;;8.70;99.90;;;9.06;88.83;98110.72;5230431;28;20242;-60
2021/03/27 04:48:55;;;;;;;3.00;2.77;;;8.50;99.90;;;9.02;88.95;98119.84;5237872;28;20588;-60
2021/03/27 04:51:51;;;;;;;2.67;2.57;;;8.40;99.90;;;8.78;86.73;98125.06;5240725;28;20205;-60
2021/03/27 04:54:55;;;;;;;2.70;2.60;;;8.30;99.90;;;8.72;88.82;98133.94;5227447;28;20282;-60
2021/03/27 04:57:38;;;;;;;2.87;2.73;;;8.20;99.90;;;8.69;90.44;98143.91;5244596;28;20196;-60
2021/03/27 05:00:30;;;;;;;2.70;2.50;;;8.10;99.90;;;8.70;90.40;98143.13;5241619;28;20196;-60
2021/03/27 05:03:14;;;;;;;2.60;2.50;;;8.10;99.90;;;8.73;89.38;98156.09;5229456;28;20563;-60
2021/03/27 05:05:58;;;;;;;2.50;2.30;;;8.10;99.90;;;8.69;89.20;98169.41;5230608;28;20274;-60
2021/03/27 05:08:57;;;;;;;2.30;2.20;;;8.10;99.90;;;8.65;88.00;98183.59;5227593;28;20300;-60
2021/03/27 05:11:44;;;;;;;2.23;2.13;;;8.10;99.90;;;8.66;88.37;98204.88;5236248;28;20200;-59
2021/03/27 05:14:37;;;;;;;2.47;2.37;;;8.00;99.90;;;8.67;88.81;98216.81;5241244;28;20220;-60
2021/03/27 05:17:19;;;;;;;2.30;2.20;;;7.90;99.90;;;8.62;87.21;98225.81;5248017;28;20287;-60
2021/03/27 05:20:02;;;;;;;2.57;2.47;;;7.90;99.90;;;8.53;86.74;98226.94;5250038;28;20225;-61
2021/03/27 05:22:47;;;;;;;2.30;2.20;;;7.80;99.90;;;8.54;83.80;98235.47;5250062;28;20250;-59
2021/03/27 05:25:33;;;;;;;2.33;2.17;;;7.90;99.90;;;8.45;85.27;98250.97;5247060;28;20246;-60
2021/03/27 05:31:01;;;;;;;2.40;2.30;;;7.70;99.90;;;8.46;86.54;98268.03;5178078;28;20704;-54
2021/03/27 05:33:44;;;;;;;2.20;2.10;;;7.70;99.90;;;8.39;80.74;98281.09;5187904;28;20689;-56
2021/03/27 05:36:29;;;;;;;2.70;2.60;;;7.70;99.90;;;8.27;80.82;98287.81;5187526;28;20231;-53
2021/03/27 05:39:27;;;;;;;2.60;2.50;;;7.50;99.90;;;8.14;81.29;98278.41;5188179;28;20329;-57
2021/03/27 05:42:35;;;;;;;2.30;2.20;;;7.50;99.90;;;8.08;84.20;98289.03;5208954;28;20202;-57
2021/03/27 05:46:12;;;;;;;2.93;2.33;;;7.40;99.90;;;8.15;86.06;98304.75;5204783;28;20222;-54
2021/03/27 05:49:39;;;;;;;2.33;2.23;;;7.40;99.90;;;8.19;86.49;98309.31;5205272;28;20218;-54
2021/03/27 05:52:32;;;;;;;2.20;2.10;;;7.50;99.90;;;8.27;87.89;98316.72;5205775;28;20229;-57
2021/03/27 05:55:38;;;;;;;2.20;2.10;;;7.50;99.90;;;8.35;86.18;98324.91;5208028;28;20551;-55
2021/03/27 05:58:53;;;;;;;2.30;2.20;;;7.60;99.90;;;8.38;86.07;98327.69;5199160;28;20229;-56
2021/03/27 06:01:39;;;;;;;2.10;2.00;;;7.50;99.90;;;8.34;86.73;98324.03;5193421;28;20202;-59
2021/03/27 06:05:10;;;;;;;2.53;2.40;;;7.50;99.90;;;8.30;82.90;98346.63;5199842;28;20214;-56
2021/03/27 06:08:23;;;;;;;2.50;2.40;;;7.50;99.90;;;8.25;84.43;98355.59;5187699;28;20297;-55
2021/03/27 06:11:15;;;;;;;2.67;2.57;;;7.50;99.90;;;8.19;82.46;98362.78;5193529;28;20331;-57
2021/03/27 06:14:33;;;;;;;2.37;2.27;;;7.50;99.90;;;8.05;82.11;98375.34;5202962;28;20666;-57
2021/03/27 06:17:39;;;;;;;2.70;2.60;;;7.40;99.90;;;8.04;82.00;98382.84;5200966;28;20202;-55
2021/03/27 06:20:47;;;;;;;2.80;2.70;;;7.40;99.90;;;8.00;81.82;98383.41;5208065;28;20253;-57
2021/03/27 06:23:56;;;;;;;2.60;2.50;;;7.40;99.90;;;8.07;80.61;98393.31;5204334;28;20598;-56
2021/03/27 06:27:01;;;;;;;2.43;2.33;;;7.40;99.90;;;8.07;80.67;98401.81;5189505;28;20230;-56
2021/03/27 06:30:40;;;;;;;2.60;2.50;;;7.40;99.90;;;8.14;77.61;98410.78;5206614;28;20312;-55
2021/03/27 06:34:11;;;;;;;2.00;1.90;;;7.30;99.90;;;7.92;77.70;98423.53;5202562;28;20202;-54
2021/03/27 06:37:43;;;;;;;2.10;2.00;;;7.30;99.90;;;7.78;78.49;98437.75;5205935;28;20276;-57
2021/03/27 06:41:02;;;;;;;1.97;1.97;;;7.20;99.90;;;7.83;79.35;98433.03;5124234;29;20228;-54
2021/03/27 06:43:51;;;;;;;2.43;2.33;;;7.20;99.90;;;7.86;80.17;98446.00;5191934;28;20328;-59
2021/03/27 06:46:54;;;;;;;2.37;2.27;;;7.20;99.90;;;7.86;78.79;98454.50;5207321;28;20209;-53
2021/03/27 06:49:59;;;;;;;2.43;2.23;;;7.30;99.90;;;7.66;76.54;98452.97;5172083;28;20214;-53
2021/03/27 06:53:29;;;;;;;2.53;2.43;;;7.20;99.90;;;7.55;78.53;98450.34;5206107;28;20209;-57
2021/03/27 06:56:33;;;;;;;3.13;2.83;;;7.10;99.90;;;8.21;78.86;98442.69;5201431;28;20593;-56
2021/03/27 06:59:33;;;;;;;2.57;2.37;;;7.40;99.90;;;9.47;71.93;98443.50;5202562;28;20241;-51
2021/03/27 07:02:47;;;;;;;2.20;2.10;;;8.30;99.90;;;9.95;69.05;98434.03;5193241;28;20284;-56
2021/03/27 07:06:02;;;;;;;2.07;1.97;;;8.70;99.90;;;9.81;68.44;98453.50;5206346;28;20613;-54
2021/03/27 07:08:49;;;;;;;2.40;2.27;;;8.50;99.90;;;9.42;67.79;98467.78;5187163;28;20217;-56
2021/03/27 07:11:46;;;;;;;1.80;1.70;;;8.60;99.90;;;9.17;70.08;98459.16;5204889;28;20282;-53
2021/03/27 07:15:04;;;;;;;2.40;2.30;;;8.30;99.90;;;8.95;70.70;98466.91;5203097;28;20281;-56
2021/03/27 07:17:46;;;;;;;3.33;2.30;;;8.00;99.90;;;8.89;70.54;98474.13;5190251;28;20712;-53
2021/03/27 07:21:16;;;;;;;2.80;2.23;;;7.90;99.90;;;9.27;69.68;98474.38;5206158;28;20253;-55
2021/03/27 07:24:14;;;;;;;2.47;1.77;;;8.30;99.90;;;9.85;68.67;98478.47;5182463;28;20312;-56
2021/03/27 07:27:38;;;;;;;2.30;2.00;;;9.00;99.90;;;10.18;65.68;98475.56;5193220;28;20248;-53
2021/03/27 07:30:32;;;;;;;2.07;1.97;;;9.30;99.90;;;10.11;65.58;98481.94;5189850;28;20287;-56
2021/03/27 07:33:36;;;;;;;2.50;2.03;;;9.10;99.90;;;10.06;65.54;98488.41;5163383;28;20655;-54
2021/03/27 07:36:42;;;;;;;2.57;1.93;;;8.90;99.90;;;9.66;64.49;98501.81;5205610;28;20292;-54
2021/03/27 07:39:49;;;;;;;2.20;2.00;;;8.70;99.90;;;9.53;65.41;98513.59;5201136;28;20292;-54
2021/03/27 07:42:57;;;;;;;2.40;2.20;;;8.50;99.90;;;9.50;63.66;98508.25;5205935;28;20198;-53
2021/03/27 07:46:14;;;;;;;2.60;2.40;;;8.50;99.90;;;9.45;65.08;98511.38;5196644;28;20232;-53
2021/03/27 07:49:19;;;;;;;2.07;1.73;;;8.40;99.90;;;9.46;63.44;98515.69;5161616;28;20225;-52
2021/03/27 07:52:07;;;;;;;2.37;2.17;;;8.80;99.90;;;9.62;60.72;98521.91;5205352;28;20201;-51
2021/03/27 07:55:31;;;;;;;3.40;2.00;;;8.80;99.90;;;10.02;55.98;98511.97;5204012;28;20216;-55
2021/03/27 07:58:23;;;;;;;2.63;1.93;;;9.40;99.90;;;10.51;54.61;98510.25;5197477;28;20588;-56
2021/03/27 08:01:29;;;;;;;2.13;2.03;;;10.10;99.90;;;10.83;53.03;98514.97;5204637;28;20737;-54
2021/03/27 08:04:38;;;;;;;2.60;1.80;;;10.50;99.90;;;11.03;55.00;98512.03;5200564;28;20304;-56
2021/03/27 08:07:21;;;;;;;2.10;1.90;;;10.60;99.90;;;11.50;53.22;98528.69;5204082;28;20221;-56
2021/03/27 08:10:27;;;;;;;2.10;1.90;;;11.10;99.90;;;11.71;50.89;98530.06;5204712;28;20392;-55
2021/03/27 08:13:51;;;;;;;2.33;2.13;;;11.30;98.40;;;11.84;49.23;98538.53;5198575;28;20198;-55
2021/03/27 08:16:45;;;;;;;1.93;1.80;;;11.30;97.70;;;11.80;50.98;98531.44;5204004;28;20289;-56
2021/03/27 08:19:57;;;;;;;1.87;1.67;;;11.20;99.10;;;11.94;50.17;98534.13;5200742;28;20297;-56
2021/03/27 08:23:21;;;;;;;1.80;1.70;;;11.40;97.70;;;12.12;47.36;98524.13;5178275;28;20197;-57
2021/03/27 08:26:16;;;;;;;1.73;1.47;;;11.50;96.00;;;12.23;47.04;98527.34;5204397;28;20233;-57
2021/03/27 08:30:07;;;;;;;1.53;1.43;;;11.60;95.60;;;12.40;46.57;98530.94;5204554;28;20317;-56
2021/03/27 08:33:43;;;;;;;1.87;1.60;;;11.80;96.30;;;12.56;47.58;98522.47;5201598;28;20289;-55
2021/03/27 08:36:58;;;;;;;2.13;1.98;;;12.00;95.60;;;12.66;46.12;98527.38;5195260;28;20290;-58
2021/03/27 08:40:14;;;;;;;2.00;1.90;;;12.10;95.30;;;12.67;46.09;98538.50;5203170;28;20246;-58
2021/03/27 08:43:19;;;;;;;2.35;1.83;;;12.20;95.60;;;12.57;46.94;98540.53;5165492;28;20298;-57
2021/03/27 08:46:40;;;;;;;1.90;1.80;;;11.90;95.00;;;12.43;45.36;98541.38;5193419;28;20200;-56
2021/03/27 08:50:19;;;;;;;2.33;1.70;;;11.80;95.00;;;12.13;47.18;98559.22;5202802;28;20245;-57
2021/03/27 08:53:24;;;;;;;3.03;1.75;;;11.20;95.90;;;11.96;47.11;98572.66;5204148;28;20198;-56
2021/03/27 08:56:41;;;;;;;1.92;1.67;;;10.90;96.00;;;11.75;49.33;98563.56;5204758;28;20197;-53
2021/03/27 08:59:47;;;;;;;2.30;2.10;;;10.60;97.30;;;11.65;50.37;98570.66;5195425;28;20226;-57
2021/03/27 09:02:43;;;;;;;3.63;3.30;;;10.40;97.90;;;11.58;49.04;98568.47;5197338;28;20288;-55
2021/03/27 09:05:47;;;;;;;2.10;1.90;;;10.30;97.50;;;11.28;48.47;98580.19;5189067;28;20222;-56
2021/03/27 09:08:41;;;;;;;2.08;1.90;;;10.20;96.90;;;11.08;48.90;98576.31;5192237;28;20297;-56
2021/03/27 09:11:49;;;;;;;1.90;1.70;;;10.00;97.00;;;10.97;48.20;98590.06;5204371;28;20197;-56
2021/03/27 09:14:54;;;;;;;2.10;1.80;;;9.90;96.50;;;10.82;48.23;98589.91;5194232;28;20543;-55
2021/03/27 09:17:52;;;;;;;2.07;1.97;;;9.90;96.00;;;10.88;47.21;98584.31;5198512;28;20247;-55
2021/03/27 09:20:52;;;;;;;2.10;1.80;;;9.80;95.90;;;10.75;48.20;98580.91;5190258;28;20284;-52
2021/03/27 09:23:41;;;;;;;2.10;2.00;;;9.90;95.70;;;10.85;47.66;98592.66;5198761;28;20301;-56
2021/03/27 09:26:55;;;;;;;2.17;1.60;;;10.00;95.80;;;11.00;47.76;98600.50;5203293;28;20289;-56
2021/03/27 09:30:06;;;;;;;1.70;1.60;;;10.20;95.70;;;11.34;46.95;98597.63;5200364;28;20309;-53
2021/03/27 09:32:53;;;;;;;1.60;1.60;;;10.70;94.90;;;11.65;45.34;98606.50;5161914;28;20746;-54
2021/03/27 09:35:58;;;;;;;1.60;1.50;;;11.00;93.60;;;11.87;43.45;98613.03;5203967;28;20244;-54
2021/03/27 09:38:42;;;;;;;1.70;1.60;;;11.10;92.30;;;12.18;42.68;98609.06;5197707;28;20249;-53
2021/03/27 09:41:53;;;;;;;2.80;1.77;;;11.60;91.30;;;12.50;42.66;98620.44;5196754;28;20284;-55
2021/03/27 09:45:10;;;;;;;1.90;1.80;;;12.00;91.50;;;12.69;42.43;98626.69;5203452;28;20214;-56
2021/03/27 09:48:02;;;;;;;1.77;1.65;;;12.10;91.30;;;12.72;41.40;98621.75;5202463;28;20198;-53
2021/03/27 09:50:38;;;;;;;2.17;1.48;;;12.40;90.60;;;13.00;40.45;98630.31;5203319;28;20200;-53
2021/03/27 09:53:22;;;;;;;1.45;1.35;;;12.70;89.30;;;13.13;39.74;98618.22;5196546;28;20248;-53
2021/03/27 09:56:02;;;;;;;1.63;1.52;;;12.70;87.20;;;13.14;38.56;98610.63;5190395;28;20233;-53
2021/03/27 09:59:17;;;;;;;2.80;1.77;;;12.70;86.10;;;13.14;38.17;98614.88;5194419;28;20315;-53
2021/03/27 10:01:59;;;;;;;3.00;1.90;;;12.70;86.00;;;13.22;38.85;98616.19;5193527;28;20198;-51
2021/03/27 10:04:59;;;;;;;1.42;1.35;;;12.80;86.70;;;13.22;39.43;98611.06;5205085;28;20415;-51
2021/03/27 10:07:48;;;;;;;1.90;1.70;;;12.80;87.10;;;13.11;38.75;98615.56;5198047;28;20190;-54
2021/03/27 10:10:55;;;;;;;1.88;1.77;;;12.80;86.00;;;13.06;39.24;98617.84;5201457;28;20221;-54
2021/03/27 10:13:50;;;;;;;1.38;1.27;;;12.60;86.90;;;13.12;38.51;98619.03;5192654;28;20198;-52
2021/03/27 10:16:35;;;;;;;1.67;1.58;;;12.70;85.40;;;13.22;39.51;98617.09;5203171;28;20197;-50
2021/03/27 10:19:26;;;;;;;1.77;1.50;;;13.00;86.70;;;13.30;38.08;98625.25;5197776;28;20276;-49
2021/03/27 10:22:15;;;;;;;1.42;1.40;;;12.90;85.50;;;13.17;37.44;98617.63;5202117;28;20660;-49
2021/03/27 10:25:09;;;;;;;1.45;1.45;;;12.70;83.60;;;12.95;37.01;98616.31;5202120;28;20213;-54
2021/03/27 10:28:14;;;;;;;1.52;1.35;;;12.50;82.20;;;12.81;39.30;98623.19;5205843;28;20609;-51
2021/03/27 10:30:56;;;;;;;1.67;1.58;;;12.20;85.60;;;12.78;39.13;98625.56;5194826;28;20206;-51
2021/03/27 10:33:41;;;;;;;1.83;1.50;;;12.10;85.50;;;12.73;37.96;98618.38;5194586;28;20639;-55
2021/03/27 10:36:40;;;;;;;2.38;1.63;;;12.20;82.70;;;12.69;36.98;98616.44;5205172;28;20284;-55
2021/03/27 10:40:05;;;;;;;1.80;1.70;;;12.20;83.20;;;12.91;38.75;98623.78;5189432;28;20747;-51
2021/03/27 10:43:25;;;;;;;1.88;1.77;;;12.40;83.20;;;12.92;37.98;98625.53;5205244;28;20198;-55
2021/03/27 10:46:10;;;;;;;1.67;1.58;;;12.40;84.10;;;12.94;37.93;98624.84;5170872;28;20231;-52
2021/03/27 10:49:14;;;;;;;1.40;1.30;;;12.40;84.30;;;13.07;36.98;98637.59;5203130;28;20220;-55
2021/03/27 10:52:35;;;;;;;2.75;1.50;;;12.60;83.50;;;13.06;37.56;98634.94;5206370;28;20225;-56
2021/03/27 10:55:54;;;;;;;1.45;1.45;;;12.60;82.40;;;13.03;37.45;98629.63;5203755;28;20190;-53
2021/03/27 10:59:03;;;;;;;1.83;1.55;;;12.60;83.00;;;13.20;37.20;98630.63;5204024;28;20217;-52
2021/03/27 11:01:53;;;;;;;1.67;1.58;;;12.70;82.70;;;13.28;36.93;98645.72;5199259;28;20629;-53
2021/03/27 11:05:26;;;;;;;1.50;1.40;;;12.70;81.40;;;12.84;37.79;98653.28;5188922;28;20223;-55
2021/03/27 11:08:42;;;;;;;1.70;1.60;;;12.40;82.80;;;12.93;36.86;98656.41;5194544;28;20260;-52
2021/03/27 11:11:43;;;;;;;2.03;1.27;;;12.30;81.50;;;12.82;36.80;98647.19;5161563;28;20203;-52
2021/03/27 11:15:04;;;;;;;1.90;1.77;;;12.20;82.10;;;12.91;37.29;98654.56;5201112;28;20193;-51
2021/03/27 11:18:33;;;;;;;2.67;1.63;;;12.30;82.30;;;13.11;36.06;98648.06;5205153;28;20282;-54
2021/03/27 11:21:19;;;;;;;1.92;1.75;;;12.50;80.10;;;13.23;38.02;98653.91;5117072;29;20537;-51
2021/03/27 11:24:30;;;;;;;1.60;1.50;;;12.70;82.20;;;13.45;35.52;98650.97;5193628;28;20243;-50
2021/03/27 11:27:54;;;;;;;1.58;1.45;;;12.90;80.00;;;13.44;36.73;98668.03;5190887;28;20198;-54
2021/03/27 11:30:39;;;;;;;1.73;1.63;;;12.90;80.30;;;13.32;35.94;98672.47;5194525;28;20225;-53
2021/03/27 11:33:25;;;;;;;2.80;1.55;;;12.60;80.70;;;13.37;37.42;98671.06;5197523;28;20204;-51
2021/03/27 11:36:06;;;;;;;1.77;1.60;;;12.60;81.80;;;13.28;36.89;98662.81;5201858;28;20585;-54
2021/03/27 11:38:45;;;;;;;1.30;1.20;;;12.60;80.60;;;13.24;36.16;98676.22;5191434;28;20253;-51
2021/03/27 11:41:23;;;;;;;2.35;1.25;;;12.40;80.00;;;13.16;36.46;98668.09;5204095;28;20202;-55
2021/03/27 11:44:27;;;;;;;2.38;1.77;;;12.40;81.20;;;12.91;35.48;98675.97;5200893;28;20204;-55
2021/03/27 11:47:04;;;;;;;1.30;1.20;;;12.30;78.80;;;12.87;35.17;98684.25;5201678;28;20193;-53
2021/03/27 11:49:43;;;;;;;1.67;1.58;;;12.10;79.90;;;12.96;36.49;98682.28;5203627;28;20217;-55
2021/03/27 11:52:24;;;;;;;1.70;1.60;;;12.00;80.20;;;12.79;34.98;98694.06;5203759;28;20205;-55
2021/03/27 11:55:07;;;;;;;1.90;1.60;;;11.80;79.50;;;12.66;35.41;98681.25;5195110;28;20205;-53
2021/03/27 11:57:51;;;;;;;1.60;1.50;;;11.80;80.20;;;12.82;36.25;98672.84;5192535;28;20685;-53
2021/03/27 12:03:50;;;;;;;1.75;1.50;;;11.80;79.10;;;12.70;35.34;98675.50;5203344;28;20590;-51
2021/03/27 12:06:33;;;;;;;1.77;1.50;;;11.90;78.80;;;12.65;35.50;98678.59;5203608;28;20312;-52
2021/03/27 12:09:16;;;;;;;2.03;1.45;;;11.80;79.90;;;12.85;35.38;98666.22;5190490;28;20267;-54
2021/03/27 12:12:08;;;;;;;1.98;1.75;;;12.00;79.00;;;13.00;35.17;98671.38;5202816;28;20653;-52
2021/03/27 12:14:52;;;;;;;1.92;1.50;;;12.20;78.30;;;12.85;35.51;98660.22;5203659;28;20232;-52
2021/03/27 12:17:37;;;;;;;1.83;1.52;;;12.00;78.20;;;12.69;35.53;98670.31;5202993;28;20198;-51
2021/03/27 12:20:30;;;;;;;3.05;1.73;;;11.90;79.80;;;12.67;35.80;98675.31;5201813;28;20732;-54
2021/03/27 12:23:17;;;;;;;1.92;1.48;;;11.60;79.10;;;12.65;35.80;98676.94;5203730;28;20198;-54
2021/03/27 12:26:02;;;;;;;1.80;1.60;;;11.70;79.20;;;12.54;35.86;98683.94;5202826;28;20236;-54
2021/03/27 12:28:43;;;;;;;2.47;1.35;;;11.60;79.90;;;12.54;35.92;98678.81;5201818;28;20317;-54